Penns Park, Pennsylvania
Current Conditions -  °F | °C
As of 4:54 AM on Wednesday 22 Oct 2014 (Local Time) from KDYL Reporting Station
Overcast Overcast  
Wind Chill: 52°   Ceiling: 1100
Heat Index: 52°   Visibility: 10mi
Dew Point: 51°   Wind: 6mph
Humidity: 97%   Direction: 20°NNE
Pressure: 29.87"   Gusts: NA
Location:  40.27°N, 75°W
Report Text: KDYL 220854Z AUTO 02005KT 10SM OVC011 11/11 A2987 RMK AO2 SLP113 T01110106 55003
Loading
Personal Weather Stations






























Interactive Weather Map New forecast layout! Learn more

10-Day Weather Forecast

Advertisements
Track Severe Weather on mobile